Time;durP1;ratioP1;P1;durP2;ratioP2;P2;SDS_P1;SDS_P2;PMS_P1;PMS_P2;Temp;Humidity;BMP_temperature;BMP_pressure;BME280_temperature;BME280_humidity;BME280_pressure;Samples;Min_cycle;Max_cycle;Signal;HPM_P1;HPM_P2
2022/10/09 00:02:59;;;;;;;7.65;3.22;;;;;;;;;;10276903;28;20134;-85
2022/10/09 00:08:02;;;;;;;7.57;3.15;;;;;;;;;;10276516;28;20098;-83
2022/10/09 00:13:06;;;;;;;6.70;1.98;;;;;;;;;;10291663;28;20525;-84
2022/10/09 00:18:13;;;;;;;4.68;1.65;;;;;;;;;;10276578;28;20061;-85
2022/10/09 00:23:17;;;;;;;3.47;1.38;;;;;;;;;;10293794;28;20557;-86
2022/10/09 00:28:21;;;;;;;2.72;1.63;;;;;;;;;;10293429;28;20062;-84
2022/10/09 00:33:26;;;;;;;2.22;1.23;;;;;;;;;;10275506;28;20465;-84
2022/10/09 00:38:30;;;;;;;2.65;1.48;;;;;;;;;;10291804;28;20047;-85
2022/10/09 00:43:46;;;;;;;2.65;1.80;;;;;;;;;;10275526;28;20046;-86
2022/10/09 00:48:57;;;;;;;2.13;1.52;;;;;;;;;;10292377;28;20057;-83
2022/10/09 00:54:03;;;;;;;2.50;1.83;;;;;;;;;;10290658;28;20151;-85
2022/10/09 00:59:10;;;;;;;2.60;1.70;;;;;;;;;;10274382;28;20050;-85
2022/10/09 01:04:15;;;;;;;3.20;1.92;;;;;;;;;;10274750;28;20310;-85
2022/10/09 01:09:25;;;;;;;3.13;1.40;;;;;;;;;;10273392;28;20042;-85
2022/10/09 01:14:31;;;;;;;1.77;1.20;;;;;;;;;;10273656;28;20053;-86
2022/10/09 01:20:05;;;;;;;2.53;1.38;;;;;;;;;;10273237;28;20424;-85
2022/10/09 01:25:15;;;;;;;1.88;1.30;;;;;;;;;;10290611;28;20046;-85
2022/10/09 01:30:21;;;;;;;1.92;1.23;;;;;;;;;;10289234;28;20055;-85
2022/10/09 01:35:26;;;;;;;1.98;1.27;;;;;;;;;;10289142;28;20074;-86
2022/10/09 01:40:29;;;;;;;1.70;1.08;;;;;;;;;;10288185;28;20670;-86
2022/10/09 01:45:43;;;;;;;2.50;1.10;;;;;;;;;;10304930;28;20070;-85
2022/10/09 01:50:55;;;;;;;1.63;1.30;;;;;;;;;;10322389;28;20057;-84
2022/10/09 01:56:07;;;;;;;2.10;1.13;;;;;;;;;;10324176;28;20150;-85
2022/10/09 02:01:16;;;;;;;1.38;1.10;;;;;;;;;;10311275;28;20098;-84
2022/10/09 02:06:23;;;;;;;1.67;1.20;;;;;;;;;;10326671;28;20046;-86
2022/10/09 02:11:33;;;;;;;1.45;0.90;;;;;;;;;;10326354;28;20042;-85
2022/10/09 02:16:43;;;;;;;2.63;0.80;;;;;;;;;;10311105;28;20050;-85
2022/10/09 02:21:51;;;;;;;2.22;1.00;;;;;;;;;;10261734;28;20055;-85
2022/10/09 02:26:57;;;;;;;2.67;1.15;;;;;;;;;;10248854;28;20043;-85
2022/10/09 02:32:02;;;;;;;1.15;0.90;;;;;;;;;;10247060;28;20095;-83
2022/10/09 02:37:07;;;;;;;1.58;0.80;;;;;;;;;;10295136;28;20043;-84
2022/10/09 02:42:11;;;;;;;1.67;0.90;;;;;;;;;;10325880;28;20096;-85
2022/10/09 02:47:16;;;;;;;0.75;0.75;;;;;;;;;;10311143;28;20046;-85
2022/10/09 02:52:19;;;;;;;1.38;1.05;;;;;;;;;;10309651;28;20540;-85
2022/10/09 02:57:23;;;;;;;0.82;0.80;;;;;;;;;;10310365;28;20174;-85
2022/10/09 03:02:30;;;;;;;1.33;0.75;;;;;;;;;;10324847;28;20056;-85
2022/10/09 03:07:34;;;;;;;1.70;0.75;;;;;;;;;;10319589;28;20496;-84
2022/10/09 03:12:40;;;;;;;1.90;0.90;;;;;;;;;;10309551;28;20053;-85
2022/10/09 03:17:45;;;;;;;1.17;0.90;;;;;;;;;;10324985;28;20061;-85
2022/10/09 03:22:49;;;;;;;1.07;0.93;;;;;;;;;;10309092;28;20175;-84
2022/10/09 03:27:53;;;;;;;3.28;1.23;;;;;;;;;;10309292;28;20038;-84
2022/10/09 03:32:58;;;;;;;1.10;0.90;;;;;;;;;;10326791;28;20050;-85
2022/10/09 03:38:01;;;;;;;1.05;0.82;;;;;;;;;;10309177;28;20046;-85
2022/10/09 03:43:05;;;;;;;1.48;0.85;;;;;;;;;;10322199;28;20149;-86
2022/10/09 03:48:11;;;;;;;2.10;0.90;;;;;;;;;;10326329;28;20096;-86
2022/10/09 03:53:16;;;;;;;2.03;1.20;;;;;;;;;;10307684;28;20505;-86
2022/10/09 03:58:23;;;;;;;2.40;1.50;;;;;;;;;;10307686;28;20081;-84
2022/10/09 04:03:28;;;;;;;2.35;1.35;;;;;;;;;;10311840;28;20099;-87
2022/10/09 04:08:36;;;;;;;1.65;1.13;;;;;;;;;;10289488;28;20082;-86
2022/10/09 04:13:39;;;;;;;1.17;0.80;;;;;;;;;;10313634;28;20590;-87
2022/10/09 04:18:46;;;;;;;2.58;0.95;;;;;;;;;;10322672;28;20109;-86
2022/10/09 04:23:51;;;;;;;0.98;0.85;;;;;;;;;;10313058;28;20116;-86
2022/10/09 04:28:58;;;;;;;1.63;1.10;;;;;;;;;;10313237;28;20062;-87
2022/10/09 04:34:08;;;;;;;2.22;0.80;;;;;;;;;;10322517;28;20388;-87
2022/10/09 04:39:15;;;;;;;0.68;0.68;;;;;;;;;;10305699;28;20046;-87
2022/10/09 04:44:21;;;;;;;0.82;0.75;;;;;;;;;;10311939;28;20045;-86
2022/10/09 04:49:26;;;;;;;1.48;0.85;;;;;;;;;;10303640;28;20057;-87
2022/10/09 04:54:31;;;;;;;3.53;0.90;;;;;;;;;;10312195;28;20071;-86
2022/10/09 04:59:36;;;;;;;1.30;0.85;;;;;;;;;;10289015;28;20129;-86
2022/10/09 05:04:44;;;;;;;1.77;0.85;;;;;;;;;;10295024;28;20074;-86
2022/10/09 05:09:50;;;;;;;0.75;0.75;;;;;;;;;;10288275;28;20055;-86
2022/10/09 05:14:53;;;;;;;1.92;1.10;;;;;;;;;;10332600;28;20046;-87
2022/10/09 05:19:58;;;;;;;2.08;1.20;;;;;;;;;;10299456;28;20047;-87
2022/10/09 05:25:02;;;;;;;2.70;1.20;;;;;;;;;;10314521;28;20077;-87
2022/10/09 05:30:07;;;;;;;2.55;1.52;;;;;;;;;;10322842;28;20077;-87
2022/10/09 05:35:13;;;;;;;4.00;1.70;;;;;;;;;;10317542;28;20046;-86
2022/10/09 05:40:16;;;;;;;3.00;1.40;;;;;;;;;;10287692;28;20078;-87
2022/10/09 05:45:22;;;;;;;3.03;1.60;;;;;;;;;;10298464;28;20072;-87
2022/10/09 05:50:27;;;;;;;1.88;1.13;;;;;;;;;;10293534;28;20126;-86
2022/10/09 05:55:31;;;;;;;3.35;1.30;;;;;;;;;;10267930;28;20050;-87
2022/10/09 06:00:36;;;;;;;2.22;0.98;;;;;;;;;;10316427;28;20509;-87
2022/10/09 06:05:41;;;;;;;4.75;1.13;;;;;;;;;;10318764;28;20413;-86
2022/10/09 06:10:44;;;;;;;2.08;1.20;;;;;;;;;;10277616;28;20045;-87
2022/10/09 06:15:52;;;;;;;1.08;0.90;;;;;;;;;;10311293;28;20042;-87
2022/10/09 06:20:59;;;;;;;0.80;0.75;;;;;;;;;;10317166;28;20047;-87
2022/10/09 06:26:04;;;;;;;;;;;;;;;;;;10292201;28;20121;-86
2022/10/09 06:31:09;;;;;;;1.30;1.20;;;;;;;;;;10308357;28;19926;-86
2022/10/09 06:36:17;;;;;;;2.85;1.00;;;;;;;;;;10275092;28;20429;-86
2022/10/09 06:41:22;;;;;;;1.80;1.00;;;;;;;;;;10257585;28;20041;-87
2022/10/09 06:46:34;;;;;;;0.93;0.83;;;;;;;;;;10285255;28;20505;-87
2022/10/09 06:51:39;;;;;;;2.55;1.08;;;;;;;;;;10289918;28;20514;-87
2022/10/09 06:56:44;;;;;;;4.78;1.02;;;;;;;;;;10298335;28;20047;-87
2022/10/09 07:01:47;;;;;;;1.25;1.15;;;;;;;;;;10274656;28;20066;-87
2022/10/09 07:06:57;;;;;;;;;;;;;;;;;;10299430;28;20074;-87
2022/10/09 07:12:03;;;;;;;1.60;1.13;;;;;;;;;;10283584;28;19945;-87
2022/10/09 07:17:08;;;;;;;1.37;1.13;;;;;;;;;;10274549;28;20137;-87
2022/10/09 07:22:17;;;;;;;0.95;0.82;;;;;;;;;;10274792;28;20408;-87
2022/10/09 07:27:22;;;;;;;1.08;1.00;;;;;;;;;;10282332;28;20055;-87
2022/10/09 07:32:26;;;;;;;1.25;1.15;;;;;;;;;;10306449;28;20047;-87
2022/10/09 07:37:33;;;;;;;1.60;1.42;;;;;;;;;;10299241;28;20047;-87
2022/10/09 07:42:36;;;;;;;1.92;1.42;;;;;;;;;;10241995;28;20053;-87
2022/10/09 07:47:40;;;;;;;2.03;1.50;;;;;;;;;;10273129;28;20046;-86
2022/10/09 07:52:45;;;;;;;3.10;1.88;;;;;;;;;;10269321;28;20061;-87
2022/10/09 07:57:48;;;;;;;1.50;1.20;;;;;;;;;;10289664;28;20065;-87
2022/10/09 08:02:55;;;;;;;0.90;0.90;;;;;;;;;;10258486;28;20047;-86
2022/10/09 08:08:01;;;;;;;1.40;1.10;;;;;;;;;;10269853;28;20085;-85
2022/10/09 08:13:05;;;;;;;1.58;1.13;;;;;;;;;;10301517;28;20046;-83
2022/10/09 08:18:10;;;;;;;6.57;3.17;;;;;;;;;;10333280;28;20058;-84
2022/10/09 08:23:18;;;;;;;2.80;1.70;;;;;;;;;;10296669;28;20047;-86
2022/10/09 08:28:22;;;;;;;3.70;1.60;;;;;;;;;;10330300;28;20547;-86
2022/10/09 08:33:26;;;;;;;5.80;3.28;;;;;;;;;;10295982;28;20133;-85
2022/10/09 08:38:31;;;;;;;5.45;3.25;;;;;;;;;;10290847;28;20055;-85
2022/10/09 08:43:51;;;;;;;4.15;2.50;;;;;;;;;;10280137;28;20202;-85
2022/10/09 08:48:54;;;;;;;;;;;;;;;;;;10645230;23;20058;-77
2022/10/09 08:54:04;;;;;;;2.40;1.48;;;;;;;;;;10243011;28;19926;-77
2022/10/09 08:59:11;;;;;;;6.00;3.85;;;;;;;;;;10254101;28;20070;-78
2022/10/09 09:04:37;;;;;;;2.10;1.60;;;;;;;;;;10283908;28;20039;-78
2022/10/09 09:09:46;;;;;;;;;;;;;;;;;;10289907;28;20533;-78
2022/10/09 09:15:04;;;;;;;0.80;0.80;;;;;;;;;;10288632;28;19929;-77
2022/10/09 09:20:16;;;;;;;1.48;1.13;;;;;;;;;;10286535;28;20049;-77
2022/10/09 09:25:23;;;;;;;2.03;1.83;;;;;;;;;;10279407;28;20116;-77
2022/10/09 09:30:30;;;;;;;2.03;1.30;;;;;;;;;;10280346;28;20046;-77
2022/10/09 09:35:41;;;;;;;1.30;1.20;;;;;;;;;;10273291;28;20119;-77
2022/10/09 09:40:47;;;;;;;1.77;1.60;;;;;;;;;;10273509;28;20043;-77
2022/10/09 09:45:53;;;;;;;1.95;1.40;;;;;;;;;;10278924;28;20047;-77
2022/10/09 09:50:56;;;;;;;1.60;1.40;;;;;;;;;;10277807;28;20446;-77
2022/10/09 09:56:13;;;;;;;1.23;1.13;;;;;;;;;;10274799;28;20449;-78
2022/10/09 10:01:23;;;;;;;1.20;1.02;;;;;;;;;;10275956;28;20051;-77
2022/10/09 10:06:33;;;;;;;3.90;2.20;;;;;;;;;;10292124;28;20034;-77
2022/10/09 10:11:44;;;;;;;3.20;2.50;;;;;;;;;;10271410;28;20054;-77
2022/10/09 10:16:50;;;;;;;2.90;1.90;;;;;;;;;;10273511;28;20030;-78
2022/10/09 10:21:58;;;;;;;2.73;1.13;;;;;;;;;;10278932;28;20074;-78
2022/10/09 10:27:09;;;;;;;2.42;0.70;;;;;;;;;;10272710;28;20525;-78
2022/10/09 10:32:17;;;;;;;1.92;0.80;;;;;;;;;;10278014;28;20054;-78
2022/10/09 10:37:42;;;;;;;1.63;0.70;;;;;;;;;;10277822;28;20047;-80
2022/10/09 10:42:57;;;;;;;0.95;0.73;;;;;;;;;;10276467;28;20043;-77
2022/10/09 10:48:04;;;;;;;1.08;0.77;;;;;;;;;;10282568;28;20043;-79
2022/10/09 10:53:18;;;;;;;1.67;0.73;;;;;;;;;;10268825;28;20438;-78
2022/10/09 10:58:29;;;;;;;3.03;0.98;;;;;;;;;;10224020;28;20039;-78
2022/10/09 11:03:46;;;;;;;2.95;0.85;;;;;;;;;;10255917;28;20051;-78
2022/10/09 11:08:59;;;;;;;3.05;0.95;;;;;;;;;;10266433;28;20058;-78
2022/10/09 11:14:12;;;;;;;1.52;0.70;;;;;;;;;;10218541;28;20054;-79
2022/10/09 11:19:32;;;;;;;1.55;1.00;;;;;;;;;;10226447;28;20047;-78
2022/10/09 11:24:54;;;;;;;1.90;0.60;;;;;;;;;;10270715;28;20601;-77
2022/10/09 11:30:02;;;;;;;3.28;0.90;;;;;;;;;;10279712;28;20047;-80
2022/10/09 11:35:13;;;;;;;0.90;0.65;;;;;;;;;;10281284;28;20047;-80
2022/10/09 11:40:21;;;;;;;1.15;0.70;;;;;;;;;;10265064;28;20384;-80
2022/10/09 11:45:31;;;;;;;1.23;0.70;;;;;;;;;;10282342;28;20046;-77
2022/10/09 11:50:44;;;;;;;1.50;0.70;;;;;;;;;;10293068;28;20035;-78
2022/10/09 11:55:48;;;;;;;1.50;0.77;;;;;;;;;;10322977;28;20552;-78
2022/10/09 12:00:54;;;;;;;2.95;1.08;;;;;;;;;;10333117;28;20046;-77
2022/10/09 12:06:07;;;;;;;2.92;0.77;;;;;;;;;;10347320;28;20646;-77
2022/10/09 12:11:14;;;;;;;4.15;0.90;;;;;;;;;;10332706;28;20054;-77
2022/10/09 12:16:40;;;;;;;1.00;0.70;;;;;;;;;;10333973;28;20046;-78
2022/10/09 12:21:51;;;;;;;1.15;0.50;;;;;;;;;;10310543;28;20129;-78
2022/10/09 12:26:59;;;;;;;0.85;0.70;;;;;;;;;;10317975;28;20042;-78
2022/10/09 12:32:07;;;;;;;2.03;0.88;;;;;;;;;;10349094;28;20510;-79
2022/10/09 12:37:13;;;;;;;4.13;0.82;;;;;;;;;;10324011;28;20394;-78
2022/10/09 12:42:23;;;;;;;2.03;0.70;;;;;;;;;;10332506;28;20055;-78
2022/10/09 12:47:29;;;;;;;0.98;0.50;;;;;;;;;;10333381;28;20424;-78
2022/10/09 12:52:33;;;;;;;0.65;0.55;;;;;;;;;;10331986;28;20042;-79
2022/10/09 12:57:45;;;;;;;1.38;0.60;;;;;;;;;;10326091;28;20050;-79
2022/10/09 13:02:50;;;;;;;5.40;0.82;;;;;;;;;;10324940;28;20406;-78
2022/10/09 13:07:54;;;;;;;2.38;0.75;;;;;;;;;;10320863;28;20046;-78
2022/10/09 13:12:58;;;;;;;2.45;0.80;;;;;;;;;;10346310;28;20053;-77
2022/10/09 13:18:19;;;;;;;1.90;0.77;;;;;;;;;;10370789;28;20046;-78
2022/10/09 13:23:28;;;;;;;1.00;0.50;;;;;;;;;;10363930;28;20045;-78
2022/10/09 13:28:31;;;;;;;1.75;0.50;;;;;;;;;;10366315;28;20045;-78
2022/10/09 13:33:36;;;;;;;1.08;0.63;;;;;;;;;;10362563;28;20042;-77
2022/10/09 13:38:40;;;;;;;1.38;0.70;;;;;;;;;;10358724;28;20049;-77
2022/10/09 13:43:43;;;;;;;3.78;0.70;;;;;;;;;;10362223;28;20152;-77
2022/10/09 13:48:48;;;;;;;1.10;0.55;;;;;;;;;;10362469;28;20041;-77
2022/10/09 13:53:52;;;;;;;2.25;0.68;;;;;;;;;;10348240;28;20055;-77
2022/10/09 13:58:55;;;;;;;2.63;0.70;;;;;;;;;;10366891;28;20104;-78
2022/10/09 14:04:00;;;;;;;1.33;0.60;;;;;;;;;;10363399;28;20042;-78
2022/10/09 14:09:04;;;;;;;1.55;0.52;;;;;;;;;;10366531;28;20042;-78
2022/10/09 14:14:07;;;;;;;1.60;0.70;;;;;;;;;;10380721;28;20053;-77
2022/10/09 14:19:12;;;;;;;0.47;0.40;;;;;;;;;;10347303;28;20125;-78
2022/10/09 14:24:15;;;;;;;1.65;0.60;;;;;;;;;;10362788;28;20049;-77
2022/10/09 14:29:18;;;;;;;0.82;0.55;;;;;;;;;;10363777;28;20038;-79
2022/10/09 14:34:23;;;;;;;2.35;0.40;;;;;;;;;;10365806;28;20045;-78
2022/10/09 14:39:26;;;;;;;1.27;0.50;;;;;;;;;;10347396;28;20408;-79
2022/10/09 14:44:29;;;;;;;0.55;0.47;;;;;;;;;;10379777;28;20045;-77
2022/10/09 14:49:34;;;;;;;1.05;0.40;;;;;;;;;;10365878;28;20045;-77
2022/10/09 14:54:37;;;;;;;1.33;0.52;;;;;;;;;;10355081;28;20492;-78
2022/10/09 14:59:41;;;;;;;1.00;0.55;;;;;;;;;;10361968;28;20178;-78
2022/10/09 15:04:45;;;;;;;0.50;0.30;;;;;;;;;;10362250;28;20498;-77
2022/10/09 15:09:48;;;;;;;1.45;0.50;;;;;;;;;;10338792;28;20049;-78
2022/10/09 15:14:52;;;;;;;0.40;0.38;;;;;;;;;;10375850;28;20050;-78
2022/10/09 15:19:56;;;;;;;1.27;0.60;;;;;;;;;;10359497;28;20053;-78
2022/10/09 15:25:00;;;;;;;2.45;0.32;;;;;;;;;;10340366;28;20412;-78
2022/10/09 15:30:04;;;;;;;0.50;0.35;;;;;;;;;;10359979;28;20054;-77
2022/10/09 15:35:09;;;;;;;1.13;0.50;;;;;;;;;;10361830;28;20912;-76
2022/10/09 15:40:12;;;;;;;1.27;0.50;;;;;;;;;;10337542;28;20069;-78
2022/10/09 15:45:16;;;;;;;1.30;0.50;;;;;;;;;;10354041;28;20277;-77
2022/10/09 15:50:21;;;;;;;0.88;0.50;;;;;;;;;;10337099;28;20038;-77
2022/10/09 15:55:24;;;;;;;0.70;0.52;;;;;;;;;;10337184;28;20052;-77
2022/10/09 16:00:27;;;;;;;2.05;0.60;;;;;;;;;;10358882;28;20046;-79
2022/10/09 16:05:37;;;;;;;0.55;0.40;;;;;;;;;;10357844;28;20053;-77
2022/10/09 16:10:42;;;;;;;1.38;0.50;;;;;;;;;;10360630;28;20405;-78
2022/10/09 16:15:49;;;;;;;0.85;0.40;;;;;;;;;;10339115;28;20277;-77
2022/10/09 16:20:53;;;;;;;0.82;0.45;;;;;;;;;;10360074;28;20398;-77
2022/10/09 16:25:57;;;;;;;1.25;0.40;;;;;;;;;;10355550;28;20102;-77
2022/10/09 16:31:01;;;;;;;1.08;0.50;;;;;;;;;;10344387;28;20125;-78
2022/10/09 16:36:10;;;;;;;2.05;0.35;;;;;;;;;;10359397;28;20042;-77
2022/10/09 16:41:16;;;;;;;0.20;0.20;;;;;;;;;;10359712;28;20042;-77
2022/10/09 16:46:22;;;;;;;1.65;0.50;;;;;;;;;;10360818;28;20049;-78
2022/10/09 16:51:28;;;;;;;0.57;0.40;;;;;;;;;;10360565;28;20356;-78
2022/10/09 16:56:35;;;;;;;0.70;0.40;;;;;;;;;;10360756;28;20124;-77
2022/10/09 17:01:42;;;;;;;1.20;0.80;;;;;;;;;;10346290;28;20054;-77
2022/10/09 17:06:47;;;;;;;2.22;1.25;;;;;;;;;;10375997;28;20049;-79
2022/10/09 17:11:50;;;;;;;1.85;1.20;;;;;;;;;;10363828;28;20045;-77
2022/10/09 17:16:53;;;;;;;1.55;0.93;;;;;;;;;;10378170;28;20056;-77
2022/10/09 17:21:58;;;;;;;1.85;1.15;;;;;;;;;;10365700;28;20069;-79
2022/10/09 17:27:03;;;;;;;1.52;1.00;;;;;;;;;;10346685;28;20109;-78
2022/10/09 17:32:08;;;;;;;0.80;0.80;;;;;;;;;;10364610;28;20063;-80
2022/10/09 17:37:12;;;;;;;3.83;1.50;;;;;;;;;;10341019;28;20457;-78
2022/10/09 17:42:16;;;;;;;2.28;1.10;;;;;;;;;;10363697;28;20544;-78
2022/10/09 17:47:19;;;;;;;1.77;1.13;;;;;;;;;;10361452;28;20048;-78
2022/10/09 17:52:24;;;;;;;2.35;1.25;;;;;;;;;;10363968;28;20449;-77
2022/10/09 17:57:27;;;;;;;3.28;1.50;;;;;;;;;;10362927;28;20441;-77
2022/10/09 18:02:30;;;;;;;2.58;1.30;;;;;;;;;;10363209;28;20072;-78
2022/10/09 18:07:35;;;;;;;1.85;1.30;;;;;;;;;;10344860;28;20042;-76
2022/10/09 18:12:38;;;;;;;2.33;1.50;;;;;;;;;;10363909;28;20082;-78
2022/10/09 18:17:42;;;;;;;5.70;2.78;;;;;;;;;;10343236;28;20045;-77
2022/10/09 18:22:46;;;;;;;8.30;3.80;;;;;;;;;;10362781;28;20398;-79
2022/10/09 18:27:50;;;;;;;8.25;3.88;;;;;;;;;;10337037;28;20048;-79
2022/10/09 18:32:54;;;;;;;6.82;3.58;;;;;;;;;;10371867;28;20050;-77
2022/10/09 18:37:58;;;;;;;7.25;3.53;;;;;;;;;;10353622;28;20069;-78
2022/10/09 18:43:02;;;;;;;6.68;3.90;;;;;;;;;;10355852;28;20514;-78
2022/10/09 18:48:06;;;;;;;6.28;3.33;;;;;;;;;;10352902;28;20045;-78
2022/10/09 18:53:11;;;;;;;5.63;3.30;;;;;;;;;;10355542;28;20041;-77
2022/10/09 18:58:15;;;;;;;4.05;2.78;;;;;;;;;;10368293;28;20042;-77
2022/10/09 19:03:19;;;;;;;3.88;2.35;;;;;;;;;;10361897;28;20041;-77
2022/10/09 19:08:23;;;;;;;6.78;2.72;;;;;;;;;;10355821;28;20054;-78
2022/10/09 19:13:27;;;;;;;4.60;2.67;;;;;;;;;;10365046;28;20050;-78
2022/10/09 19:18:31;;;;;;;5.15;2.63;;;;;;;;;;10366523;28;20042;-78
2022/10/09 19:23:35;;;;;;;4.40;2.85;;;;;;;;;;10363754;28;20045;-78
2022/10/09 19:28:39;;;;;;;4.68;3.13;;;;;;;;;;10353691;28;20042;-77
2022/10/09 19:33:43;;;;;;;6.25;3.47;;;;;;;;;;10378916;28;20045;-79
2022/10/09 19:38:48;;;;;;;5.82;3.45;;;;;;;;;;10363364;28;20044;-78
2022/10/09 19:43:51;;;;;;;10.00;5.43;;;;;;;;;;10363897;28;20084;-79
2022/10/09 19:48:54;;;;;;;6.85;3.92;;;;;;;;;;10362911;28;20054;-77
2022/10/09 19:54:01;;;;;;;4.80;2.60;;;;;;;;;;10344438;28;20049;-78
2022/10/09 19:59:07;;;;;;;5.90;3.30;;;;;;;;;;10355819;28;20057;-78
2022/10/09 20:04:12;;;;;;;5.15;3.28;;;;;;;;;;10362588;28;20456;-77
2022/10/09 20:09:17;;;;;;;5.55;2.95;;;;;;;;;;10356360;28;20509;-78
2022/10/09 20:14:20;;;;;;;5.40;3.20;;;;;;;;;;10362367;28;20046;-78
2022/10/09 20:19:23;;;;;;;5.55;2.95;;;;;;;;;;10343470;28;20069;-79
2022/10/09 20:24:28;;;;;;;4.22;2.60;;;;;;;;;;10360701;28;20044;-79
2022/10/09 20:29:31;;;;;;;6.63;2.95;;;;;;;;;;10360358;28;20065;-78
2022/10/09 20:34:35;;;;;;;3.25;2.17;;;;;;;;;;10359884;28;20065;-77
2022/10/09 20:39:39;;;;;;;3.70;2.13;;;;;;;;;;10368205;28;20045;-77
2022/10/09 20:44:43;;;;;;;3.95;2.08;;;;;;;;;;10366955;28;20073;-78
2022/10/09 20:49:47;;;;;;;2.85;1.70;;;;;;;;;;10347986;28;20034;-78
2022/10/09 20:54:52;;;;;;;4.05;2.45;;;;;;;;;;10362207;28;20050;-77
2022/10/09 20:59:55;;;;;;;2.88;1.92;;;;;;;;;;10359081;28;20049;-77
2022/10/09 21:04:58;;;;;;;3.05;1.90;;;;;;;;;;10358554;28;20068;-78
2022/10/09 21:10:04;;;;;;;3.05;2.10;;;;;;;;;;10372266;28;20169;-77
2022/10/09 21:15:08;;;;;;;2.42;1.85;;;;;;;;;;10357160;28;20057;-78
2022/10/09 21:20:11;;;;;;;4.07;2.25;;;;;;;;;;10339397;28;20068;-78
2022/10/09 21:25:16;;;;;;;3.83;2.53;;;;;;;;;;10357369;28;20049;-79
2022/10/09 21:30:19;;;;;;;3.17;2.15;;;;;;;;;;10357785;28;20045;-78
2022/10/09 21:35:23;;;;;;;4.85;2.42;;;;;;;;;;10356803;28;20046;-76
2022/10/09 21:40:28;;;;;;;3.30;2.20;;;;;;;;;;10360778;28;20057;-77
2022/10/09 21:45:31;;;;;;;3.33;2.15;;;;;;;;;;10362525;28;20096;-77
2022/10/09 21:50:35;;;;;;;3.05;2.10;;;;;;;;;;10344567;28;20448;-77
2022/10/09 21:55:39;;;;;;;3.85;2.20;;;;;;;;;;10362870;28;20092;-77
2022/10/09 22:00:43;;;;;;;3.17;2.15;;;;;;;;;;10361802;28;20042;-77
2022/10/09 22:05:46;;;;;;;4.38;2.85;;;;;;;;;;10354774;28;20049;-78
2022/10/09 22:10:51;;;;;;;2.92;2.20;;;;;;;;;;10361709;28;20386;-76
2022/10/09 22:15:55;;;;;;;4.38;2.20;;;;;;;;;;10358376;28;20517;-78
2022/10/09 22:21:04;;;;;;;5.57;1.77;;;;;;;;;;10360104;28;20085;-78
2022/10/09 22:26:13;;;;;;;3.33;2.00;;;;;;;;;;10333385;28;20046;-77
2022/10/09 22:31:18;;;;;;;5.03;2.13;;;;;;;;;;10359430;28;20046;-78
2022/10/09 22:36:24;;;;;;;3.22;2.10;;;;;;;;;;10360053;28;20038;-78
2022/10/09 22:41:29;;;;;;;2.72;1.98;;;;;;;;;;10359431;28;20047;-79
2022/10/09 22:46:35;;;;;;;3.60;1.67;;;;;;;;;;10360445;28;20037;-77
2022/10/09 22:51:38;;;;;;;2.13;1.57;;;;;;;;;;10351073;28;20045;-77
2022/10/09 22:56:45;;;;;;;2.75;1.55;;;;;;;;;;10359947;28;20111;-77
2022/10/09 23:01:50;;;;;;;2.78;1.90;;;;;;;;;;10350371;28;20435;-78
2022/10/09 23:06:55;;;;;;;2.55;1.77;;;;;;;;;;10358931;28;20042;-76
2022/10/09 23:12:00;;;;;;;2.17;1.67;;;;;;;;;;10374773;28;20049;-77
2022/10/09 23:17:03;;;;;;;4.00;1.80;;;;;;;;;;10358451;28;20439;-78
2022/10/09 23:22:07;;;;;;;2.70;1.70;;;;;;;;;;10358900;28;20046;-78
2022/10/09 23:27:11;;;;;;;3.40;1.70;;;;;;;;;;10359644;28;20046;-76
2022/10/09 23:32:14;;;;;;;4.07;1.92;;;;;;;;;;10373962;28;20046;-78
2022/10/09 23:37:18;;;;;;;3.50;2.13;;;;;;;;;;10358315;28;20111;-79
2022/10/09 23:42:22;;;;;;;3.75;1.90;;;;;;;;;;10358547;28;20050;-77
2022/10/09 23:47:25;;;;;;;3.00;2.05;;;;;;;;;;10341226;28;20914;-77
2022/10/09 23:52:29;;;;;;;2.53;1.80;;;;;;;;;;10350040;28;20042;-77
2022/10/09 23:57:35;;;;;;;1.98;1.60;;;;;;;;;;10358137;28;20053;-78
